createdAt,value
2022-09-20T00:00:24.370Z,50.44
2022-09-20T00:01:24.478Z,50.42
2022-09-20T00:02:24.463Z,50.43
2022-09-20T00:03:24.390Z,50.57
2022-09-20T00:04:24.374Z,50.57
2022-09-20T00:06:24.397Z,50.59
2022-09-20T00:07:24.386Z,50.48
2022-09-20T00:09:24.394Z,50.45
2022-09-20T00:10:24.402Z,50.49
2022-09-20T00:11:24.414Z,50.49
2022-09-20T00:13:24.409Z,51.18
2022-09-20T00:14:24.398Z,51.18
2022-09-20T00:15:24.419Z,51.71
2022-09-20T00:16:24.529Z,51.97
2022-09-20T00:18:24.421Z,51.86
2022-09-20T00:19:24.429Z,52.09
2022-09-20T00:20:24.449Z,51.98
2022-09-20T00:22:24.456Z,52.01
2022-09-20T00:23:24.428Z,52.01
2022-09-20T00:24:24.427Z,51.92
2022-09-20T00:25:24.422Z,51.73
2022-09-20T00:26:24.428Z,51.68
2022-09-20T00:27:24.477Z,51.73
2022-09-20T00:28:24.471Z,51.73
2022-09-20T00:29:24.473Z,51.68
2022-09-20T00:31:24.469Z,51.72
2022-09-20T00:32:24.476Z,51.77
2022-09-20T00:33:24.446Z,51.71
2022-09-20T00:34:24.459Z,51.71
2022-09-20T00:35:24.456Z,51.89
2022-09-20T00:37:24.507Z,52.19
2022-09-20T00:39:24.480Z,52.34
2022-09-20T00:40:24.605Z,52.34
2022-09-20T00:41:24.462Z,52.30
2022-09-20T00:42:24.514Z,52.17
2022-09-20T00:43:24.484Z,52.20
2022-09-20T00:44:24.485Z,52.18
2022-09-20T00:45:24.507Z,52.20
2022-09-20T00:46:24.538Z,52.20
2022-09-20T00:47:24.520Z,52.32
2022-09-20T00:48:24.498Z,52.32
2022-09-20T00:51:24.491Z,52.08
2022-09-20T00:53:24.528Z,52.08
2022-09-20T00:54:24.505Z,52.12
2022-09-20T00:55:24.519Z,52.48
2022-09-20T00:56:24.506Z,52.30
2022-09-20T00:57:24.495Z,52.30
2022-09-20T00:59:24.520Z,52.47
2022-09-20T01:00:24.522Z,52.43
2022-09-20T01:01:24.589Z,52.69
2022-09-20T01:05:24.563Z,52.89
2022-09-20T01:06:24.530Z,52.89
2022-09-20T01:07:24.543Z,52.87
2022-09-20T01:09:24.538Z,52.98
2022-09-20T01:10:24.572Z,53.43
2022-09-20T01:11:24.526Z,53.43
2022-09-20T01:12:24.559Z,53.60
2022-09-20T01:14:24.557Z,53.59
2022-09-20T01:15:24.589Z,53.59
2022-09-20T01:16:24.625Z,53.63
2022-09-20T01:17:24.562Z,53.63
2022-09-20T01:18:24.564Z,53.79
2022-09-20T01:19:24.580Z,53.76
2022-09-20T01:20:24.596Z,53.76
2022-09-20T01:21:24.572Z,53.70
2022-09-20T01:22:24.569Z,53.70
2022-09-20T01:23:24.586Z,53.49
2022-09-20T01:25:24.586Z,53.41
2022-09-20T01:26:24.572Z,53.42
2022-09-20T01:27:24.591Z,53.56
2022-09-20T01:28:24.571Z,53.58
2022-09-20T01:29:24.592Z,53.87
2022-09-20T01:30:24.619Z,53.96
2022-09-20T01:31:24.700Z,53.97
2022-09-20T01:32:24.581Z,53.97
2022-09-20T01:34:24.611Z,54.02
2022-09-20T01:35:24.641Z,54.02
2022-09-20T01:36:24.613Z,53.95
2022-09-20T01:37:24.622Z,53.96
2022-09-20T01:39:24.614Z,54.03
2022-09-20T01:41:24.641Z,54.00
2022-09-20T01:43:24.623Z,54.24
2022-09-20T01:44:24.640Z,54.26
2022-09-20T01:45:24.678Z,54.18
2022-09-20T01:46:24.784Z,54.18
2022-09-20T01:47:24.647Z,54.27
2022-09-20T01:48:24.620Z,54.21
2022-09-20T01:49:24.632Z,54.34
2022-09-20T01:51:24.672Z,54.40
2022-09-20T01:53:24.657Z,54.45
2022-09-20T01:55:24.665Z,54.52
2022-09-20T01:57:27.350Z,54.55
2022-09-20T02:00:24.652Z,55.01
2022-09-20T02:01:24.773Z,55.09
2022-09-20T02:04:24.699Z,54.90
2022-09-20T02:05:24.686Z,55.39
2022-09-20T02:06:24.679Z,55.39
2022-09-20T02:07:24.711Z,56.47
2022-09-20T02:08:24.686Z,56.47
2022-09-20T02:09:24.709Z,57.10
2022-09-20T02:10:24.698Z,56.77
2022-09-20T02:11:24.691Z,56.77
2022-09-20T02:12:24.698Z,56.57
2022-09-20T02:13:24.721Z,56.54
2022-09-20T02:14:24.718Z,56.54
2022-09-20T02:15:24.727Z,56.37
2022-09-20T02:16:24.795Z,56.67
2022-09-20T02:17:24.723Z,56.65
2022-09-20T02:18:24.721Z,56.65
2022-09-20T02:19:24.745Z,56.69
2022-09-20T02:20:24.732Z,56.69
2022-09-20T02:21:24.726Z,56.63
2022-09-20T02:22:24.738Z,56.41
2022-09-20T02:23:24.740Z,56.30
2022-09-20T02:24:24.741Z,56.30
2022-09-20T02:25:24.742Z,56.36
2022-09-20T02:26:24.732Z,56.36
2022-09-20T02:27:24.736Z,56.44
2022-09-20T02:28:24.726Z,56.55
2022-09-20T02:29:24.762Z,56.32
2022-09-20T02:31:24.806Z,56.54
2022-09-20T02:33:24.759Z,56.43
2022-09-20T02:34:25.080Z,56.41
2022-09-20T02:35:24.742Z,56.43
2022-09-20T02:36:24.766Z,56.95
2022-09-20T02:37:24.751Z,56.95
2022-09-20T02:38:24.769Z,56.98
2022-09-20T02:40:24.863Z,57.07
2022-09-20T02:41:24.751Z,57.06
2022-09-20T02:43:24.774Z,57.15
2022-09-20T02:44:24.834Z,57.25
2022-09-20T02:45:24.825Z,57.25
2022-09-20T02:46:24.799Z,57.14
2022-09-20T02:47:24.821Z,57.16
2022-09-20T02:48:24.776Z,57.16
2022-09-20T02:49:24.821Z,57.19
2022-09-20T02:50:24.793Z,57.19
2022-09-20T02:51:24.803Z,57.25
2022-09-20T02:52:24.798Z,57.33
2022-09-20T02:53:24.806Z,57.25
2022-09-20T02:54:24.813Z,57.25
2022-09-20T02:56:24.857Z,57.41
2022-09-20T02:58:24.819Z,57.35
2022-09-20T03:00:24.852Z,57.13
2022-09-20T03:01:24.970Z,57.15
2022-09-20T03:02:24.883Z,57.15
2022-09-20T03:03:24.847Z,57.12
2022-09-20T03:04:24.851Z,57.07
2022-09-20T03:06:24.889Z,57.20
2022-09-20T03:07:24.834Z,57.23
2022-09-20T03:08:24.857Z,57.17
2022-09-20T03:10:24.841Z,57.20
2022-09-20T03:11:24.853Z,57.54
2022-09-20T03:12:24.824Z,57.52
2022-09-20T03:15:24.869Z,57.41
2022-09-20T03:16:25.006Z,57.65
2022-09-20T03:18:24.870Z,57.67
2022-09-20T03:19:24.888Z,57.82
2022-09-20T03:21:24.901Z,57.61
2022-09-20T03:22:24.889Z,57.65
2022-09-20T03:23:24.878Z,57.84
2022-09-20T03:24:24.884Z,57.84
2022-09-20T03:25:24.868Z,57.76
2022-09-20T03:26:24.897Z,57.61
2022-09-20T03:28:24.900Z,57.48
2022-09-20T03:33:24.922Z,57.59
2022-09-20T03:34:24.912Z,57.63
2022-09-20T03:35:24.893Z,57.62
2022-09-20T03:36:24.903Z,57.59
2022-09-20T03:38:24.919Z,57.73
2022-09-20T03:39:24.927Z,57.74
2022-09-20T03:40:24.980Z,57.75
2022-09-20T03:41:24.929Z,57.84
2022-09-20T03:43:24.970Z,57.93
2022-09-20T03:44:24.936Z,58.03
2022-09-20T03:45:24.914Z,58.03
2022-09-20T03:46:24.928Z,57.98
2022-09-20T03:47:24.941Z,57.92
2022-09-20T03:48:24.966Z,58.02
2022-09-20T03:49:24.948Z,58.22
2022-09-20T03:50:25.003Z,58.34
2022-09-20T03:52:24.955Z,58.55
2022-09-20T03:53:24.978Z,58.55
2022-09-20T03:54:24.949Z,58.40
2022-09-20T03:55:24.951Z,58.42
2022-09-20T03:56:24.929Z,58.42
2022-09-20T03:57:24.945Z,58.36
2022-09-20T03:58:24.983Z,58.33
2022-09-20T03:59:25.008Z,58.22
2022-09-20T04:00:24.969Z,58.21
2022-09-20T04:01:25.037Z,58.17
2022-09-20T04:02:25.064Z,58.10
2022-09-20T04:03:25.010Z,58.12
2022-09-20T04:04:24.964Z,58.07
2022-09-20T04:05:24.977Z,58.08
2022-09-20T04:06:24.966Z,58.12
2022-09-20T04:07:24.975Z,58.17
2022-09-20T04:08:25.007Z,58.17
2022-09-20T04:09:24.978Z,58.23
2022-09-20T04:10:24.988Z,58.26
2022-09-20T04:11:25.009Z,58.30
2022-09-20T04:12:24.996Z,58.30
2022-09-20T04:13:25.015Z,58.44
2022-09-20T04:14:24.987Z,58.44
2022-09-20T04:15:24.997Z,58.62
2022-09-20T04:16:25.061Z,58.62
2022-09-20T04:18:25.050Z,58.70
2022-09-20T04:19:26.842Z,58.69
2022-09-20T04:20:25.022Z,58.69
2022-09-20T04:22:25.013Z,58.71
2022-09-20T04:24:25.052Z,58.62
2022-09-20T04:27:25.045Z,58.60
2022-09-20T04:28:25.022Z,58.65
2022-09-20T04:30:25.062Z,58.75
2022-09-20T04:31:25.073Z,58.75
2022-09-20T04:33:25.054Z,58.53
2022-09-20T04:34:25.051Z,58.53
2022-09-20T04:35:25.064Z,58.39
2022-09-20T04:36:25.051Z,58.50
2022-09-20T04:37:25.049Z,58.50
2022-09-20T04:38:25.042Z,58.42
2022-09-20T04:39:25.073Z,58.46
2022-09-20T04:40:25.158Z,58.63
2022-09-20T04:41:25.068Z,58.63
2022-09-20T04:43:25.075Z,58.59
2022-09-20T04:44:25.089Z,58.69
2022-09-20T04:45:25.056Z,58.69
2022-09-20T04:46:25.167Z,58.71
2022-09-20T04:47:25.081Z,58.73
2022-09-20T04:48:25.094Z,58.70
2022-09-20T04:49:25.083Z,58.70
2022-09-20T04:50:25.084Z,58.77
2022-09-20T04:51:25.107Z,58.76
2022-09-20T04:52:25.098Z,58.84
2022-09-20T04:53:25.083Z,58.84
2022-09-20T04:54:25.089Z,58.81
2022-09-20T04:55:25.085Z,58.80
2022-09-20T04:57:25.143Z,58.83
2022-09-20T04:58:25.108Z,58.72
2022-09-20T04:59:25.092Z,58.62
2022-09-20T05:00:25.129Z,58.57
2022-09-20T05:01:28.235Z,58.42
2022-09-20T05:02:25.172Z,58.42
2022-09-20T05:03:25.145Z,58.56
2022-09-20T05:04:25.134Z,58.58
2022-09-20T05:05:25.127Z,58.73
2022-09-20T05:06:25.141Z,58.80
2022-09-20T05:08:25.136Z,58.82
2022-09-20T05:09:25.152Z,58.94
2022-09-20T05:10:25.134Z,58.94
2022-09-20T05:11:25.144Z,58.95
2022-09-20T05:12:25.159Z,58.95
2022-09-20T05:13:25.217Z,58.98
2022-09-20T05:14:25.220Z,59.07
2022-09-20T05:15:25.126Z,59.07
2022-09-20T05:16:25.195Z,59.09
2022-09-20T05:17:25.157Z,59.12
2022-09-20T05:18:25.185Z,59.09
2022-09-20T05:20:25.162Z,59.01
2022-09-20T05:22:25.153Z,59.03
2022-09-20T05:23:25.182Z,58.95
2022-09-20T05:24:25.171Z,58.88
2022-09-20T05:25:25.186Z,58.82
2022-09-20T05:26:25.181Z,58.75
2022-09-20T05:28:25.213Z,58.69
2022-09-20T05:30:25.176Z,58.65
2022-09-20T05:33:25.228Z,58.62
2022-09-20T05:35:25.209Z,58.55
2022-09-20T05:36:25.204Z,58.55
2022-09-20T05:37:25.209Z,58.65
2022-09-20T05:39:25.288Z,58.66
2022-09-20T05:40:25.252Z,58.66
2022-09-20T05:45:25.281Z,58.77
2022-09-20T05:46:25.227Z,58.77
2022-09-20T05:47:25.217Z,58.73
2022-09-20T05:48:25.232Z,58.75
2022-09-20T05:49:25.232Z,58.75
2022-09-20T05:50:25.264Z,58.61
2022-09-20T05:51:25.237Z,58.52
2022-09-20T05:52:25.230Z,58.52
2022-09-20T05:53:25.240Z,58.46
2022-09-20T05:54:25.294Z,58.46
2022-09-20T05:55:25.285Z,58.46
2022-09-20T05:56:25.252Z,58.47
2022-09-20T05:57:25.252Z,58.27
2022-09-20T05:58:25.235Z,58.27
2022-09-20T05:59:25.259Z,58.00
2022-09-20T06:00:25.293Z,57.88
2022-09-20T06:01:25.262Z,57.88
2022-09-20T06:02:25.292Z,57.83
2022-09-20T06:03:25.254Z,57.69
2022-09-20T06:04:25.261Z,57.56
2022-09-20T06:05:25.268Z,57.51
2022-09-20T06:06:28.057Z,57.12
2022-09-20T06:07:25.284Z,56.98
2022-09-20T06:08:25.255Z,56.98
2022-09-20T06:09:25.300Z,56.75
2022-09-20T06:10:25.305Z,56.75
2022-09-20T06:11:25.271Z,56.51
2022-09-20T06:12:25.281Z,56.51
2022-09-20T06:13:25.290Z,56.40
2022-09-20T06:14:25.295Z,55.85
2022-09-20T06:15:25.335Z,55.99
2022-09-20T06:16:25.350Z,55.99
2022-09-20T06:17:25.276Z,55.95
2022-09-20T06:18:25.305Z,55.33
2022-09-20T06:19:25.320Z,55.26
2022-09-20T06:20:25.353Z,55.07
2022-09-20T06:21:25.333Z,54.71
2022-09-20T06:22:25.301Z,54.18
2022-09-20T06:23:25.304Z,54.18
2022-09-20T06:24:25.325Z,53.19
2022-09-20T06:25:25.352Z,52.07
2022-09-20T06:26:25.386Z,52.07
2022-09-20T06:27:25.346Z,50.26
2022-09-20T06:28:25.310Z,50.26
2022-09-20T06:29:25.355Z,47.57
2022-09-20T06:30:25.398Z,45.91
2022-09-20T06:31:25.321Z,45.91
2022-09-20T06:32:25.330Z,43.28
2022-09-20T06:33:25.340Z,43.28
2022-09-20T06:34:25.345Z,42.11
2022-09-20T06:35:25.354Z,40.64
2022-09-20T06:36:25.339Z,39.37
2022-09-20T06:37:25.356Z,39.37
2022-09-20T06:38:25.367Z,37.36
2022-09-20T06:39:25.354Z,36.57
2022-09-20T06:40:25.511Z,35.47
2022-09-20T06:41:25.353Z,35.47
2022-09-20T06:42:27.158Z,34.16
2022-09-20T06:43:25.378Z,33.56
2022-09-20T06:44:25.366Z,33.56
2022-09-20T06:45:25.400Z,32.90
2022-09-20T06:46:25.379Z,32.37
2022-09-20T06:47:25.361Z,31.70
2022-09-20T06:48:25.359Z,31.10
2022-09-20T06:49:25.354Z,29.90
2022-09-20T06:50:25.461Z,30.13
2022-09-20T06:51:25.381Z,29.49
2022-09-20T06:52:25.380Z,29.28
2022-09-20T06:53:25.400Z,28.70
2022-09-20T06:54:25.394Z,28.12
2022-09-20T06:55:29.030Z,28.12
2022-09-20T06:56:25.386Z,28.09
2022-09-20T06:57:25.385Z,28.08
2022-09-20T06:58:25.393Z,27.73
2022-09-20T06:59:25.405Z,27.55
2022-09-20T07:00:25.500Z,27.55
2022-09-20T07:01:30.228Z,26.52
2022-09-20T07:02:25.469Z,26.70
2022-09-20T07:03:26.411Z,26.70
2022-09-20T07:04:25.424Z,26.49
2022-09-20T07:05:25.474Z,26.03
2022-09-20T07:06:25.420Z,26.07
2022-09-20T07:07:25.437Z,25.40
2022-09-20T07:08:25.448Z,25.13
2022-09-20T07:09:25.440Z,25.19
2022-09-20T07:10:25.464Z,25.19
2022-09-20T07:11:25.436Z,25.07
2022-09-20T07:12:25.455Z,24.86
2022-09-20T07:13:25.454Z,24.62
2022-09-20T07:14:25.419Z,24.62
2022-09-20T07:15:25.468Z,23.97
2022-09-20T07:16:25.455Z,23.97
2022-09-20T07:17:25.440Z,23.71
2022-09-20T07:18:25.459Z,23.71
2022-09-20T07:19:25.435Z,23.71
2022-09-20T07:20:25.477Z,23.69
2022-09-20T07:21:25.452Z,23.69
2022-09-20T07:22:25.477Z,23.19
2022-09-20T07:23:25.467Z,23.22
2022-09-20T07:24:25.452Z,23.19
2022-09-20T07:25:25.540Z,22.74
2022-09-20T07:26:25.485Z,22.36
2022-09-20T07:27:29.106Z,22.29
2022-09-20T07:28:25.523Z,22.30
2022-09-20T07:29:25.467Z,22.30
2022-09-20T07:30:25.511Z,22.27
2022-09-20T07:31:25.548Z,22.66
2022-09-20T07:33:25.528Z,22.47
2022-09-20T07:34:25.520Z,22.47
2022-09-20T07:35:25.519Z,22.04
2022-09-20T07:36:25.506Z,21.60
2022-09-20T07:37:25.495Z,21.60
2022-09-20T07:38:25.529Z,22.12
2022-09-20T07:39:25.556Z,22.00
2022-09-20T07:40:25.622Z,22.00
2022-09-20T07:41:25.524Z,21.66
2022-09-20T07:42:25.527Z,21.60
2022-09-20T07:43:25.558Z,21.41
2022-09-20T07:44:25.510Z,21.41
2022-09-20T07:45:25.568Z,20.97
2022-09-20T07:46:25.507Z,20.97
2022-09-20T07:48:25.564Z,20.70
2022-09-20T07:50:25.579Z,20.67
2022-09-20T07:51:25.526Z,20.67
2022-09-20T07:52:25.556Z,20.08
2022-09-20T07:53:25.556Z,20.08
2022-09-20T07:54:25.550Z,20.18
2022-09-20T07:55:25.578Z,20.07
2022-09-20T07:56:25.582Z,19.64
2022-09-20T07:57:25.568Z,19.54
2022-09-20T07:58:25.567Z,19.21
2022-09-20T07:59:25.578Z,19.07
2022-09-20T08:00:25.610Z,19.07
2022-09-20T08:01:25.625Z,18.65
2022-09-20T08:02:25.629Z,18.48
2022-09-20T08:03:25.565Z,18.28
2022-09-20T08:04:25.572Z,18.19
2022-09-20T08:05:25.611Z,18.04
2022-09-20T08:06:25.588Z,18.01
2022-09-20T08:07:25.570Z,18.01
2022-09-20T08:08:25.592Z,17.95
2022-09-20T08:09:25.604Z,17.88
2022-09-20T08:10:25.606Z,17.88
2022-09-20T08:11:27.899Z,17.76
2022-09-20T08:14:25.595Z,17.28
2022-09-20T08:15:25.649Z,17.29
2022-09-20T08:16:25.684Z,17.28
2022-09-20T08:17:25.617Z,17.28
2022-09-20T08:18:25.641Z,16.90
2022-09-20T08:19:25.652Z,16.90
2022-09-20T08:20:25.683Z,16.84
2022-09-20T08:21:25.628Z,16.84
2022-09-20T08:22:25.641Z,16.59
2022-09-20T08:23:25.606Z,16.59
2022-09-20T08:24:25.656Z,16.46
2022-09-20T08:25:25.661Z,16.31
2022-09-20T08:26:25.613Z,16.31
2022-09-20T08:27:25.645Z,16.00
2022-09-20T08:28:25.633Z,16.07
2022-09-20T08:29:25.658Z,15.87
2022-09-20T08:30:27.690Z,15.87
2022-09-20T08:31:25.762Z,16.09
2022-09-20T08:32:25.633Z,16.09
2022-09-20T08:33:25.659Z,16.07
2022-09-20T08:34:25.650Z,15.86
2022-09-20T08:35:25.705Z,15.84
2022-09-20T08:36:25.667Z,15.69
2022-09-20T08:37:25.688Z,15.50
2022-09-20T08:40:25.899Z,15.72
2022-09-20T08:41:25.662Z,15.70
2022-09-20T08:42:25.680Z,15.71
2022-09-20T08:44:25.686Z,15.13
2022-09-20T08:45:34.798Z,15.13
2022-09-20T08:46:25.766Z,15.10
2022-09-20T08:47:25.695Z,15.22
2022-09-20T08:49:25.702Z,14.81
2022-09-20T08:50:25.708Z,14.93
2022-09-20T08:51:25.703Z,15.14
2022-09-20T08:52:25.714Z,15.14
2022-09-20T08:53:25.690Z,15.11
2022-09-20T08:54:26.110Z,14.84
2022-09-20T08:55:25.748Z,14.73
2022-09-20T08:56:25.724Z,14.59
2022-09-20T08:57:25.707Z,14.45
2022-09-20T08:58:25.719Z,14.45
2022-09-20T08:59:25.732Z,14.79
2022-09-20T09:00:25.758Z,14.79
2022-09-20T09:01:25.739Z,14.83
2022-09-20T09:02:25.762Z,14.83
2022-09-20T09:03:25.736Z,15.76
2022-09-20T09:04:25.715Z,15.76
2022-09-20T09:05:25.762Z,15.51
2022-09-20T09:06:25.732Z,15.56
2022-09-20T09:07:25.733Z,15.29
2022-09-20T09:08:25.757Z,15.40
2022-09-20T09:09:25.736Z,15.32
2022-09-20T09:10:25.807Z,15.34
2022-09-20T09:11:25.756Z,15.33
2022-09-20T09:12:25.765Z,15.31
2022-09-20T09:13:25.775Z,15.00
2022-09-20T09:14:25.778Z,15.00
2022-09-20T09:15:25.800Z,15.21
2022-09-20T09:16:30.214Z,15.19
2022-09-20T09:17:27.832Z,15.04
2022-09-20T09:18:31.666Z,14.94
2022-09-20T09:19:25.763Z,14.94
2022-09-20T09:20:25.807Z,15.04
2022-09-20T09:22:25.762Z,15.03
2022-09-20T09:23:25.779Z,14.94
2022-09-20T09:24:25.793Z,15.12
2022-09-20T09:25:25.834Z,15.08
2022-09-20T09:26:25.822Z,16.07
2022-09-20T09:27:25.802Z,16.61
2022-09-20T09:28:25.814Z,16.97
2022-09-20T09:29:25.796Z,17.14
2022-09-20T09:30:25.818Z,17.14
2022-09-20T09:31:26.091Z,17.70
2022-09-20T09:32:25.819Z,18.68
2022-09-20T09:33:25.821Z,19.08
2022-09-20T09:34:25.819Z,18.94
2022-09-20T09:35:25.869Z,19.71
2022-09-20T09:36:25.824Z,19.71
2022-09-20T09:37:28.590Z,20.04
2022-09-20T09:38:25.832Z,21.07
2022-09-20T09:39:25.837Z,21.61
2022-09-20T09:40:26.098Z,21.92
2022-09-20T09:41:25.818Z,21.92
2022-09-20T09:42:25.838Z,22.29
2022-09-20T09:43:25.845Z,22.69
2022-09-20T09:44:25.866Z,23.19
2022-09-20T09:45:25.878Z,23.19
2022-09-20T09:46:25.853Z,23.81
2022-09-20T09:47:25.874Z,24.01
2022-09-20T09:48:25.868Z,24.18
2022-09-20T09:49:25.848Z,24.18
2022-09-20T09:50:25.902Z,24.41
2022-09-20T09:51:25.848Z,24.52
2022-09-20T09:52:25.850Z,24.31
2022-09-20T09:53:25.873Z,24.43
2022-09-20T09:54:26.152Z,24.53
2022-09-20T09:55:25.906Z,24.53
2022-09-20T09:56:25.881Z,24.54
2022-09-20T09:57:25.885Z,24.77
2022-09-20T09:58:25.899Z,25.00
2022-09-20T09:59:25.857Z,25.00
2022-09-20T10:00:25.907Z,25.39
2022-09-20T10:01:28.938Z,25.85
2022-09-20T10:02:25.910Z,26.53
2022-09-20T10:03:25.887Z,26.94
2022-09-20T10:04:25.878Z,27.13
2022-09-20T10:05:25.931Z,27.31
2022-09-20T10:06:25.885Z,27.31
2022-09-20T10:07:25.911Z,27.60
2022-09-20T10:08:25.905Z,27.56
2022-09-20T10:09:25.919Z,27.17
2022-09-20T10:10:25.950Z,27.35
2022-09-20T10:11:25.912Z,27.35
2022-09-20T10:12:25.919Z,26.83
2022-09-20T10:13:25.913Z,27.13
2022-09-20T10:14:25.923Z,27.53
2022-09-20T10:15:25.961Z,27.54
2022-09-20T10:16:25.957Z,27.54
2022-09-20T10:17:25.946Z,27.06
2022-09-20T10:18:25.947Z,26.89
2022-09-20T10:19:25.933Z,26.89
2022-09-20T10:20:25.943Z,27.17
2022-09-20T10:21:25.945Z,26.93
2022-09-20T10:22:25.955Z,27.10
2022-09-20T10:23:51.353Z,27.01
2022-09-20T10:24:25.941Z,27.01
2022-09-20T10:25:25.979Z,27.03
2022-09-20T10:26:25.953Z,27.02
2022-09-20T10:27:25.978Z,26.30
2022-09-20T10:28:25.978Z,26.51
2022-09-20T10:29:25.963Z,26.51
2022-09-20T10:30:25.999Z,26.55
2022-09-20T10:31:26.188Z,26.17
2022-09-20T10:32:25.986Z,26.23
2022-09-20T10:33:25.965Z,26.64
2022-09-20T10:34:25.952Z,26.64
2022-09-20T10:35:26.009Z,26.57
2022-09-20T10:36:25.976Z,26.68
2022-09-20T10:37:26.001Z,26.48
2022-09-20T10:38:25.976Z,26.91
2022-09-20T10:39:25.991Z,26.91
2022-09-20T10:40:26.383Z,27.56
2022-09-20T10:41:25.978Z,27.56
2022-09-20T10:42:26.010Z,27.76
2022-09-20T10:43:25.993Z,27.99
2022-09-20T10:44:26.000Z,27.99
2022-09-20T10:45:53.680Z,28.21
2022-09-20T10:46:32.262Z,27.27
2022-09-20T10:47:26.041Z,27.27
2022-09-20T10:48:26.024Z,27.67
2022-09-20T10:49:26.004Z,27.67
2022-09-20T10:50:26.002Z,28.27
2022-09-20T10:51:26.030Z,28.70
2022-09-20T10:52:26.006Z,28.79
2022-09-20T10:53:26.018Z,29.33
2022-09-20T10:54:26.034Z,29.69
2022-09-20T10:55:26.038Z,29.63
2022-09-20T10:56:26.027Z,29.63
2022-09-20T10:57:26.027Z,29.28
2022-09-20T10:58:26.033Z,29.28
2022-09-20T10:59:26.029Z,29.51
2022-09-20T11:00:26.045Z,29.88
2022-09-20T11:01:26.127Z,30.01
2022-09-20T11:02:26.111Z,29.46
2022-09-20T11:03:26.047Z,29.46
2022-09-20T11:04:26.029Z,29.81
2022-09-20T11:05:26.071Z,29.26
2022-09-20T11:06:26.102Z,29.29
2022-09-20T11:07:26.089Z,29.13
2022-09-20T11:08:26.067Z,29.35
2022-09-20T11:09:26.083Z,29.28
2022-09-20T11:10:26.084Z,29.18
2022-09-20T11:11:26.218Z,29.34
2022-09-20T11:12:26.073Z,29.34
2022-09-20T11:13:26.071Z,29.28
2022-09-20T11:14:26.066Z,28.92
2022-09-20T11:15:26.092Z,29.59
2022-09-20T11:16:26.145Z,28.94
2022-09-20T11:17:26.126Z,28.84
2022-09-20T11:18:26.082Z,28.84
2022-09-20T11:19:26.104Z,29.08
2022-09-20T11:20:26.083Z,29.06
2022-09-20T11:21:26.110Z,29.11
2022-09-20T11:22:26.237Z,29.25
2022-09-20T11:23:26.100Z,29.25
2022-09-20T11:24:26.106Z,28.71
2022-09-20T11:25:29.292Z,28.28
2022-09-20T11:26:26.141Z,28.28
2022-09-20T11:27:26.090Z,28.28
2022-09-20T11:28:26.238Z,27.98
2022-09-20T11:29:26.117Z,28.00
2022-09-20T11:30:26.128Z,27.94
2022-09-20T11:31:26.221Z,28.27
2022-09-20T11:32:26.126Z,28.10
2022-09-20T11:33:26.162Z,28.07
2022-09-20T11:34:26.134Z,28.07
2022-09-20T11:35:26.121Z,28.35
2022-09-20T11:36:26.143Z,28.84
2022-09-20T11:37:26.126Z,28.93
2022-09-20T11:38:26.167Z,28.93
2022-09-20T11:39:26.126Z,28.89
2022-09-20T11:40:26.192Z,28.99
2022-09-20T11:42:26.157Z,27.70
2022-09-20T11:43:26.181Z,28.15
2022-09-20T11:44:26.147Z,28.15
2022-09-20T11:45:28.414Z,27.41
2022-09-20T11:46:26.174Z,27.45
2022-09-20T11:47:42.764Z,27.45
2022-09-20T11:48:26.219Z,27.33
2022-09-20T11:49:26.158Z,27.33
2022-09-20T11:50:26.162Z,27.83
2022-09-20T11:51:26.163Z,27.32
2022-09-20T11:52:26.177Z,27.32
2022-09-20T11:53:26.208Z,27.25
2022-09-20T11:54:26.182Z,27.27
2022-09-20T11:55:26.186Z,27.27
2022-09-20T11:56:26.213Z,27.41
2022-09-20T11:57:26.168Z,27.41
2022-09-20T11:58:26.214Z,27.79
2022-09-20T11:59:26.213Z,28.12
2022-09-20T12:00:26.176Z,28.12
2022-09-20T12:01:28.222Z,28.74
2022-09-20T12:02:26.389Z,28.53
2022-09-20T12:03:26.254Z,28.79
2022-09-20T12:04:32.359Z,29.15
2022-09-20T12:05:26.212Z,28.95
2022-09-20T12:06:26.215Z,29.01
2022-09-20T12:07:26.219Z,28.78
2022-09-20T12:08:26.257Z,29.01
2022-09-20T12:09:26.199Z,29.37
2022-09-20T12:10:26.221Z,29.11
2022-09-20T12:11:26.219Z,29.05
2022-09-20T12:12:26.275Z,29.03
2022-09-20T12:13:26.256Z,29.03
2022-09-20T12:14:26.260Z,29.00
2022-09-20T12:15:26.241Z,29.09
2022-09-20T12:16:26.279Z,29.03
2022-09-20T12:17:26.232Z,29.03
2022-09-20T12:18:26.304Z,28.92
2022-09-20T12:19:26.267Z,29.03
2022-09-20T12:20:27.701Z,29.06
2022-09-20T12:21:26.298Z,28.91
2022-09-20T12:22:26.270Z,28.69
2022-09-20T12:23:27.742Z,28.92
2022-09-20T12:24:26.273Z,28.65
2022-09-20T12:25:26.275Z,28.75
2022-09-20T12:26:26.298Z,28.86
2022-09-20T12:27:26.264Z,28.62
2022-09-20T12:28:26.265Z,28.28
2022-09-20T12:29:26.329Z,28.51
2022-09-20T12:30:26.280Z,28.64
2022-09-20T12:31:26.453Z,28.61
2022-09-20T12:32:26.311Z,28.48
2022-09-20T12:33:26.291Z,28.39
2022-09-20T12:34:26.376Z,28.39
2022-09-20T12:35:26.298Z,28.18
2022-09-20T12:36:26.290Z,28.22
2022-09-20T12:37:26.310Z,28.38
2022-09-20T12:38:26.316Z,28.50
2022-09-20T12:39:29.479Z,28.60
2022-09-20T12:40:26.378Z,28.21
2022-09-20T12:41:28.975Z,28.10
2022-09-20T12:42:26.318Z,28.13
2022-09-20T12:43:26.303Z,28.20
2022-09-20T12:44:26.371Z,28.13
2022-09-20T12:45:26.378Z,28.15
2022-09-20T12:46:26.382Z,28.15
2022-09-20T12:47:26.354Z,28.45
2022-09-20T12:48:26.326Z,28.45
2022-09-20T12:49:26.481Z,28.44
2022-09-20T12:50:26.341Z,28.55
2022-09-20T12:51:26.323Z,28.52
2022-09-20T12:52:26.334Z,28.18
2022-09-20T12:53:26.338Z,28.09
2022-09-20T12:54:26.354Z,28.14
2022-09-20T12:55:26.422Z,28.30
2022-09-20T12:56:26.339Z,28.82
2022-09-20T12:57:26.344Z,28.82
2022-09-20T12:58:26.331Z,29.38
2022-09-20T12:59:26.476Z,29.33
2022-09-20T13:00:26.332Z,29.33
2022-09-20T13:01:26.401Z,29.36
2022-09-20T13:02:26.344Z,29.36
2022-09-20T13:03:26.363Z,29.24
2022-09-20T13:04:26.385Z,29.24
2022-09-20T13:05:26.370Z,29.48
2022-09-20T13:06:26.352Z,29.81
2022-09-20T13:07:26.356Z,30.04
2022-09-20T13:08:26.350Z,29.85
2022-09-20T13:09:26.512Z,29.95
2022-09-20T13:10:26.353Z,29.84
2022-09-20T13:11:26.394Z,29.75
2022-09-20T13:12:26.387Z,29.61
2022-09-20T13:13:26.391Z,29.76
2022-09-20T13:14:26.432Z,29.76
2022-09-20T13:15:26.372Z,29.79
2022-09-20T13:16:26.595Z,29.83
2022-09-20T13:17:26.410Z,29.85
2022-09-20T13:18:26.397Z,29.85
2022-09-20T13:19:26.427Z,29.64
2022-09-20T13:20:26.409Z,29.59
2022-09-20T13:21:26.522Z,29.56
2022-09-20T13:22:26.399Z,29.56
2022-09-20T13:23:26.422Z,30.01
2022-09-20T13:24:26.441Z,30.18
2022-09-20T13:25:26.440Z,30.18
2022-09-20T13:26:26.412Z,30.34
2022-09-20T13:27:26.438Z,30.52
2022-09-20T13:28:26.446Z,30.46
2022-09-20T13:29:26.458Z,30.46
2022-09-20T13:30:26.432Z,30.60
2022-09-20T13:31:26.503Z,30.60
2022-09-20T13:32:26.440Z,30.77
2022-09-20T13:33:26.457Z,31.10
2022-09-20T13:34:26.523Z,30.84
2022-09-20T13:35:26.420Z,30.84
2022-09-20T13:36:26.441Z,30.99
2022-09-20T13:37:26.451Z,30.96
2022-09-20T13:38:26.466Z,30.84
2022-09-20T13:39:26.487Z,30.84
2022-09-20T13:40:26.507Z,30.85
2022-09-20T13:41:26.467Z,30.89
2022-09-20T13:42:26.468Z,31.04
2022-09-20T13:43:26.456Z,31.16
2022-09-20T13:45:29.734Z,31.04
2022-09-20T13:49:26.464Z,31.14
2022-09-20T13:51:26.545Z,31.49
2022-09-20T13:52:26.485Z,31.69
2022-09-20T13:53:40.474Z,31.84
2022-09-20T13:54:26.490Z,31.57
2022-09-20T13:55:26.475Z,31.43
2022-09-20T13:56:26.570Z,31.65
2022-09-20T13:57:26.524Z,31.70
2022-09-20T13:58:26.491Z,31.70
2022-09-20T13:59:26.494Z,31.93
2022-09-20T14:01:26.669Z,32.16
2022-09-20T14:03:26.524Z,32.07
2022-09-20T14:04:26.521Z,32.20
2022-09-20T14:05:26.531Z,32.34
2022-09-20T14:06:26.539Z,32.27
2022-09-20T14:07:26.528Z,32.31
2022-09-20T14:08:26.516Z,32.31
2022-09-20T14:09:26.548Z,32.37
2022-09-20T14:10:26.514Z,32.47
2022-09-20T14:11:26.743Z,32.55
2022-09-20T14:12:26.544Z,32.66
2022-09-20T14:13:26.542Z,32.66
2022-09-20T14:14:26.540Z,32.75
2022-09-20T14:15:26.563Z,32.89
2022-09-20T14:17:26.660Z,33.10
2022-09-20T14:18:26.537Z,33.10
2022-09-20T14:19:26.542Z,32.32
2022-09-20T14:20:26.582Z,32.25
2022-09-20T14:21:26.562Z,32.25
2022-09-20T14:22:26.603Z,32.29
2022-09-20T14:24:26.560Z,32.07
2022-09-20T14:26:26.546Z,32.16